Time;durP1;ratioP1;P1;durP2;ratioP2;P2;SDS_P1;SDS_P2;PMS_P1;PMS_P2;Temp;Humidity;BMP_temperature;BMP_pressure;BME280_temperature;BME280_humidity;BME280_pressure;Samples;Min_cycle;Max_cycle;Signal;HPM_P1;HPM_P2
2022/12/25 00:01:16;;;;;;;38.38;9.43;;;6.10;99.90;;;;;;5042846;28;20108;-68
2022/12/25 00:03:42;;;;;;;28.92;9.13;;;6.10;99.90;;;;;;5042259;28;20064;-69
2022/12/25 00:06:08;;;;;;;38.08;9.43;;;6.20;99.90;;;;;;5027355;28;20114;-69
2022/12/25 00:08:35;;;;;;;29.77;8.95;;;6.20;99.90;;;;;;5046425;28;20084;-69
2022/12/25 00:11:03;;;;;;;26.85;8.98;;;6.20;99.90;;;;;;5044690;28;20045;-69
2022/12/25 00:13:30;;;;;;;21.73;8.82;;;6.20;99.90;;;;;;5045616;28;20561;-69
2022/12/25 00:15:55;;;;;;;28.77;10.30;;;6.20;99.90;;;;;;5047896;28;20047;-69
2022/12/25 00:18:21;;;;;;;25.85;9.98;;;6.30;99.90;;;;;;5045276;28;20032;-69
2022/12/25 00:21:02;;;;;;;30.77;9.40;;;6.30;99.90;;;;;;5048377;28;20036;-69
2022/12/25 00:23:28;;;;;;;28.70;9.45;;;6.30;99.90;;;;;;5029290;28;20225;-69
2022/12/25 00:25:54;;;;;;;34.20;9.98;;;6.30;99.90;;;;;;5045837;28;21953;-69
2022/12/25 00:28:21;;;;;;;24.08;8.98;;;6.30;99.90;;;;;;5045287;28;20452;-69
2022/12/25 00:30:46;;;;;;;24.95;9.52;;;6.30;99.90;;;;;;5049495;28;20028;-68
2022/12/25 00:33:13;;;;;;;30.77;9.63;;;6.30;99.90;;;;;;5046367;28;20182;-69
2022/12/25 00:35:38;;;;;;;25.33;9.50;;;6.30;99.90;;;;;;5047546;28;20060;-69
2022/12/25 00:38:04;;;;;;;30.80;9.63;;;6.30;99.90;;;;;;5046853;28;20516;-69
2022/12/25 00:40:29;;;;;;;24.83;9.50;;;6.20;99.90;;;;;;5036050;28;20118;-69
2022/12/25 00:42:55;;;;;;;23.20;8.75;;;6.30;99.90;;;;;;5035397;28;20083;-69
2022/12/25 00:45:21;;;;;;;25.10;8.45;;;6.30;99.90;;;;;;5037586;28;20044;-69
2022/12/25 00:47:46;;;;;;;33.42;10.10;;;6.30;99.90;;;;;;5039912;28;20424;-69
2022/12/25 00:50:12;;;;;;;27.48;9.32;;;6.40;99.90;;;;;;5036258;28;20038;-69
2022/12/25 00:52:38;;;;;;;19.50;9.13;;;6.30;99.90;;;;;;5041917;28;20045;-69
2022/12/25 00:55:04;;;;;;;29.40;8.50;;;6.30;99.90;;;;;;5037623;28;20068;-69
2022/12/25 00:57:30;;;;;;;32.28;10.02;;;6.30;99.90;;;;;;5041028;28;20052;-69
2022/12/25 00:59:56;;;;;;;32.80;8.57;;;6.30;99.90;;;;;;5041246;28;20041;-69
2022/12/25 01:02:24;;;;;;;27.65;8.18;;;6.40;99.90;;;;;;5041079;28;20040;-69
2022/12/25 01:04:55;;;;;;;27.45;9.00;;;6.40;99.90;;;;;;5042225;28;20043;-69
2022/12/25 01:07:23;;;;;;;25.67;9.30;;;6.40;99.90;;;;;;5039384;28;20103;-69
2022/12/25 01:12:36;;;;;;;29.05;8.27;;;6.30;99.90;;;;;;5043717;28;20441;-69
2022/12/25 01:15:02;;;;;;;19.80;9.18;;;6.40;99.90;;;;;;5038356;28;20038;-69
2022/12/25 01:17:27;;;;;;;28.13;8.07;;;6.30;99.90;;;;;;5039256;28;20048;-69
2022/12/25 01:19:53;;;;;;;24.52;8.68;;;6.30;99.90;;;;;;5038028;28;20050;-69
2022/12/25 01:22:19;;;;;;;25.20;8.35;;;6.30;99.90;;;;;;5040718;28;20537;-69
2022/12/25 01:24:44;;;;;;;24.27;8.52;;;6.30;99.90;;;;;;5045950;28;20141;-69
2022/12/25 01:27:11;;;;;;;29.98;9.23;;;6.30;99.90;;;;;;5041898;28;20143;-69
2022/12/25 01:29:37;;;;;;;28.02;9.55;;;6.30;99.90;;;;;;5040300;28;20081;-69
2022/12/25 01:32:03;;;;;;;21.67;8.63;;;6.30;99.90;;;;;;5037299;28;20497;-69
2022/12/25 01:34:29;;;;;;;32.42;9.13;;;6.40;99.90;;;;;;5021411;28;20077;-69
2022/12/25 01:36:54;;;;;;;27.90;8.25;;;6.40;99.90;;;;;;5039967;28;20086;-69
2022/12/25 01:39:20;;;;;;;22.35;9.80;;;6.40;99.90;;;;;;5039437;28;20087;-69
2022/12/25 01:41:47;;;;;;;21.83;7.90;;;6.40;99.90;;;;;;5039319;28;20124;-69
2022/12/25 01:44:15;;;;;;;28.88;8.23;;;6.40;99.90;;;;;;5035563;28;20048;-69
2022/12/25 01:46:42;;;;;;;22.95;8.48;;;6.40;99.90;;;;;;5021130;28;20083;-69
2022/12/25 01:49:17;;;;;;;36.90;9.60;;;6.50;99.90;;;;;;5037315;28;20103;-69
2022/12/25 01:51:51;;;;;;;34.20;9.05;;;6.40;99.90;;;;;;5036069;28;20045;-69
2022/12/25 01:54:22;;;;;;;29.75;8.40;;;6.40;99.90;;;;;;5036335;28;20041;-69
2022/12/25 01:56:49;;;;;;;26.67;8.00;;;6.40;99.90;;;;;;5038766;28;20041;-69
2022/12/25 01:59:18;;;;;;;26.00;8.95;;;6.50;99.90;;;;;;5040949;28;20501;-69
2022/12/25 02:01:44;;;;;;;20.63;9.23;;;6.60;99.90;;;;;;5041405;28;20044;-69
2022/12/25 02:04:21;;;;;;;27.48;10.00;;;6.60;99.90;;;;;;5039708;28;20486;-69
2022/12/25 02:06:50;;;;;;;36.65;8.20;;;6.60;99.90;;;;;;5041305;28;20071;-69
2022/12/25 02:09:17;;;;;;;35.88;9.88;;;6.60;99.90;;;;;;5041721;28;20044;-69
2022/12/25 02:11:58;;;;;;;34.42;9.65;;;6.70;99.90;;;;;;5041871;28;20473;-69
2022/12/25 02:14:31;;;;;;;21.55;7.93;;;6.70;99.90;;;;;;5041156;28;20048;-69
2022/12/25 02:17:22;;;;;;;23.73;8.00;;;6.70;99.90;;;;;;5042622;28;20043;-69
2022/12/25 02:20:06;;;;;;;23.25;8.35;;;6.70;99.90;;;;;;5041685;28;20322;-69
2022/12/25 02:22:37;;;;;;;32.80;9.23;;;6.80;99.90;;;;;;5045806;28;20554;-68
2022/12/25 02:25:20;;;;;;;20.00;7.65;;;6.80;99.90;;;;;;5027668;28;20094;-69
2022/12/25 02:28:05;;;;;;;;;;;6.80;99.90;;;;;;5044352;28;20041;-69
2022/12/25 02:30:40;;;;;;;24.83;7.93;;;6.80;99.90;;;;;;5028936;28;19971;-69
2022/12/25 02:36:29;;;;;;;30.48;8.65;;;6.80;99.90;;;;;;5043932;28;20124;-69
2022/12/25 02:41:45;;;;;;;23.88;8.13;;;6.90;99.90;;;;;;5046919;28;20046;-69
2022/12/25 03:07:06;;;;;;;26.35;9.77;;;7.10;99.90;;;;;;5047139;28;20587;-69
2022/12/25 03:12:47;;;;;;;33.58;8.05;;;7.20;99.90;;;;;;5045969;28;20040;-69
2022/12/25 03:18:00;;;;;;;31.10;8.63;;;7.20;99.90;;;;;;5046866;28;20060;-67
2022/12/25 03:28:41;;;;;;;25.75;7.97;;;7.30;99.90;;;;;;5044545;28;20037;-67
2022/12/25 03:31:17;;;;;;;23.58;7.95;;;7.30;99.90;;;;;;5045791;28;20033;-68
2022/12/25 03:36:54;;;;;;;20.92;8.65;;;7.40;99.90;;;;;;5045521;28;20045;-67
2022/12/25 03:41:03;;;;;;;29.42;8.98;;;7.40;99.90;;;;;;5040664;28;20103;-67
2022/12/25 04:37:52;;;;;;;20.33;9.32;;;7.90;99.90;;;;;;5037837;28;20049;-67
2022/12/25 04:40:18;;;;;;;35.75;10.68;;;7.90;99.90;;;;;;5040408;28;20490;-67
2022/12/25 04:42:44;;;;;;;28.13;10.35;;;8.00;99.90;;;;;;5041454;28;20498;-67
2022/12/25 04:45:10;;;;;;;33.60;10.50;;;8.00;99.90;;;;;;5038342;28;20120;-67
2022/12/25 04:47:36;;;;;;;34.70;10.80;;;8.00;99.90;;;;;;5040448;28;20055;-67
2022/12/25 04:50:02;;;;;;;25.30;11.18;;;8.00;99.90;;;;;;5038513;28;20127;-68
2022/12/25 04:52:28;;;;;;;33.53;10.35;;;8.00;99.90;;;;;;5042788;28;20033;-67
2022/12/25 04:54:53;;;;;;;24.95;10.73;;;8.10;99.90;;;;;;5023164;28;20091;-68
2022/12/25 04:57:19;;;;;;;27.58;10.43;;;8.00;99.90;;;;;;5042147;28;20041;-67
2022/12/25 04:59:44;;;;;;;33.40;11.23;;;8.10;99.90;;;;;;5043015;28;20508;-67
2022/12/25 05:02:11;;;;;;;25.25;10.45;;;8.10;99.90;;;;;;5044169;28;20037;-68
2022/12/25 05:04:36;;;;;;;20.27;8.80;;;8.10;99.90;;;;;;5044627;28;20037;-67
2022/12/25 05:07:02;;;;;;;30.23;10.52;;;8.10;99.90;;;;;;5043249;28;20041;-68
2022/12/25 05:09:27;;;;;;;29.20;11.30;;;8.10;99.90;;;;;;5027059;28;20046;-67
2022/12/25 05:11:53;;;;;;;25.52;10.13;;;8.10;99.90;;;;;;5045350;28;20515;-67
2022/12/25 05:14:18;;;;;;;26.45;10.65;;;8.10;99.90;;;;;;5042358;28;20512;-68
2022/12/25 05:16:44;;;;;;;24.40;9.57;;;8.10;99.90;;;;;;5026237;28;20489;-67
2022/12/25 05:19:09;;;;;;;26.98;9.73;;;8.10;99.90;;;;;;5041105;28;20521;-67
2022/12/25 05:21:35;;;;;;;31.70;10.93;;;8.20;99.90;;;;;;5043113;28;20045;-68
2022/12/25 05:24:01;;;;;;;25.40;11.13;;;8.20;99.90;;;;;;5040691;28;20059;-67
2022/12/25 05:26:27;;;;;;;32.90;10.18;;;8.20;99.90;;;;;;5044201;28;20037;-67
2022/12/25 05:28:53;;;;;;;26.92;10.77;;;8.20;99.90;;;;;;5044885;28;20047;-68
2022/12/25 05:31:20;;;;;;;31.38;11.40;;;8.20;99.90;;;;;;5044579;28;20065;-67
2022/12/25 05:33:49;;;;;;;37.88;11.07;;;8.20;99.90;;;;;;5043002;28;20041;-67
2022/12/25 05:36:14;;;;;;;30.15;11.27;;;8.20;99.90;;;;;;5038322;28;20029;-67
2022/12/25 05:38:40;;;;;;;25.45;10.50;;;8.20;99.90;;;;;;5039239;28;20494;-67
2022/12/25 05:41:06;;;;;;;29.42;10.00;;;8.30;99.90;;;;;;5037962;28;20125;-67
2022/12/25 05:43:31;;;;;;;26.60;11.75;;;8.30;99.90;;;;;;5039526;28;20036;-67
2022/12/25 05:45:57;;;;;;;32.53;11.57;;;8.30;99.90;;;;;;5038868;28;20452;-67
2022/12/25 05:48:23;;;;;;;26.23;11.80;;;8.30;99.90;;;;;;5040479;28;20128;-67
2022/12/25 05:50:48;;;;;;;29.88;11.13;;;8.30;99.90;;;;;;5039310;28;20402;-67
2022/12/25 05:53:15;;;;;;;29.20;10.93;;;8.30;99.90;;;;;;5039045;28;20537;-67
2022/12/25 05:55:42;;;;;;;23.00;10.55;;;8.30;99.90;;;;;;5039246;28;20029;-67
2022/12/25 05:58:09;;;;;;;27.45;11.05;;;8.40;99.90;;;;;;5040384;28;20040;-67
2022/12/25 06:00:35;;;;;;;20.77;10.95;;;8.30;99.90;;;;;;5041492;28;20056;-67
2022/12/25 06:03:01;;;;;;;24.95;10.68;;;8.30;99.90;;;;;;5040990;28;20620;-67
2022/12/25 06:05:27;;;;;;;27.80;12.07;;;8.40;99.90;;;;;;5041491;28;20041;-67
2022/12/25 06:07:52;;;;;;;25.83;11.20;;;8.40;99.90;;;;;;5040181;28;20075;-67
2022/12/25 06:10:18;;;;;;;25.17;11.05;;;8.40;99.90;;;;;;5041132;28;20053;-67
2022/12/25 06:12:44;;;;;;;26.33;11.35;;;8.40;99.90;;;;;;5042270;28;20090;-67
2022/12/25 06:15:09;;;;;;;31.75;11.57;;;8.40;99.90;;;;;;5024491;28;20040;-69
2022/12/25 06:17:35;;;;;;;26.73;10.60;;;8.40;99.90;;;;;;5043322;28;20033;-69
2022/12/25 06:20:01;;;;;;;34.47;11.98;;;8.40;99.90;;;;;;5043222;28;20176;-69
2022/12/25 06:22:31;;;;;;;31.45;12.02;;;8.40;99.90;;;;;;5025003;28;20044;-69
2022/12/25 06:24:56;;;;;;;24.98;10.57;;;8.40;99.90;;;;;;5042008;28;20091;-69
2022/12/25 06:27:22;;;;;;;30.15;11.55;;;8.40;99.90;;;;;;5042761;28;20075;-69
2022/12/25 06:29:48;;;;;;;23.88;10.07;;;8.40;99.90;;;;;;5044210;28;20044;-69
2022/12/25 06:32:13;;;;;;;25.73;10.68;;;8.40;99.90;;;;;;5042583;28;20036;-69
2022/12/25 06:34:39;;;;;;;26.83;11.27;;;8.40;99.90;;;;;;5044271;28;20483;-69
2022/12/25 06:37:04;;;;;;;30.20;11.70;;;8.40;99.90;;;;;;5043867;28;20800;-69
2022/12/25 06:39:30;;;;;;;20.08;11.25;;;8.50;99.90;;;;;;5043033;28;20469;-69
2022/12/25 06:41:56;;;;;;;25.40;10.52;;;8.50;99.90;;;;;;5044563;28;20116;-69
2022/12/25 06:44:22;;;;;;;27.17;9.60;;;8.50;99.90;;;;;;5039542;28;20186;-69
2022/12/25 06:46:47;;;;;;;20.63;9.15;;;8.50;99.90;;;;;;5044777;28;20044;-69
2022/12/25 06:49:13;;;;;;;29.83;10.18;;;8.40;99.90;;;;;;5042954;28;20034;-69
2022/12/25 06:51:38;;;;;;;18.30;9.35;;;8.50;99.90;;;;;;5046290;28;20052;-69
2022/12/25 06:54:04;;;;;;;21.45;8.57;;;8.40;99.90;;;;;;5043827;28;20045;-69
2022/12/25 06:56:31;;;;;;;22.27;9.35;;;8.40;99.90;;;;;;5046009;28;20393;-69
2022/12/25 06:59:00;;;;;;;20.75;8.00;;;8.40;99.90;;;;;;5044280;28;20071;-69
2022/12/25 07:01:43;;;;;;;19.98;9.68;;;8.40;99.90;;;;;;5030001;28;20037;-69
2022/12/25 07:04:24;;;;;;;21.33;8.40;;;8.40;99.90;;;;;;5044884;28;20040;-69
2022/12/25 07:06:49;;;;;;;18.98;8.85;;;8.30;99.90;;;;;;5046949;28;20572;-69
2022/12/25 07:09:15;;;;;;;21.52;7.90;;;8.30;99.90;;;;;;5045837;28;20045;-70
2022/12/25 07:11:41;;;;;;;18.73;7.82;;;8.30;99.90;;;;;;5045199;28;20033;-69
2022/12/25 07:14:06;;;;;;;21.58;7.78;;;8.30;99.90;;;;;;5041089;28;20037;-69
2022/12/25 07:16:32;;;;;;;18.48;7.32;;;8.30;99.90;;;;;;5025844;28;20033;-69
2022/12/25 07:19:00;;;;;;;19.30;7.88;;;8.30;99.90;;;;;;5041428;28;20048;-69
2022/12/25 07:21:26;;;;;;;26.65;8.52;;;8.30;99.90;;;;;;5043746;28;20039;-69
2022/12/25 07:23:52;;;;;;;20.15;7.93;;;8.30;99.90;;;;;;5041553;28;20136;-69
2022/12/25 07:26:18;;;;;;;18.23;7.63;;;8.30;99.90;;;;;;5041183;28;20667;-69
2022/12/25 07:28:43;;;;;;;22.30;8.05;;;8.30;99.90;;;;;;5043859;28;20694;-71
2022/12/25 07:31:12;;;;;;;17.33;7.53;;;8.40;99.90;;;;;;5042147;28;20446;-69
2022/12/25 07:33:38;;;;;;;21.60;6.82;;;8.30;99.90;;;;;;5047778;28;20441;-68
2022/12/25 07:36:04;;;;;;;15.98;7.20;;;8.30;99.90;;;;;;5043628;28;20033;-69
2022/12/25 07:38:30;;;;;;;16.92;7.20;;;8.30;99.90;;;;;;5049066;28;20040;-69
2022/12/25 07:40:56;;;;;;;15.70;6.90;;;8.30;99.90;;;;;;5053401;28;20040;-69
2022/12/25 07:43:22;;;;;;;20.20;7.10;;;8.40;99.90;;;;;;5059299;28;20033;-69
2022/12/25 07:45:47;;;;;;;13.02;6.85;;;8.40;99.90;;;;;;5049740;28;20041;-68
2022/12/25 07:48:13;;;;;;;11.43;8.07;;;8.40;99.90;;;;;;5050116;28;20088;-69
2022/12/25 07:50:38;;;;;;;16.45;6.78;;;8.30;99.90;;;;;;5051826;28;20049;-70
2022/12/25 07:53:04;;;;;;;16.08;6.60;;;8.30;99.90;;;;;;5053402;28;20653;-69
2022/12/25 07:55:29;;;;;;;21.63;7.90;;;8.30;99.90;;;;;;5039987;28;20060;-69
2022/12/25 07:57:55;;;;;;;11.73;6.60;;;8.40;99.90;;;;;;5044850;28;20445;-69
2022/12/25 08:00:21;;;;;;;14.40;6.70;;;8.40;99.90;;;;;;5048941;28;20041;-69
2022/12/25 08:02:49;;;;;;;12.23;6.45;;;8.40;99.90;;;;;;5062433;28;20069;-69
2022/12/25 08:05:15;;;;;;;12.18;6.10;;;8.40;99.90;;;;;;5037522;28;20053;-71
2022/12/25 08:07:40;;;;;;;14.25;6.13;;;8.40;99.90;;;;;;5047474;28;20045;-68
2022/12/25 08:10:06;;;;;;;12.07;6.97;;;8.40;99.90;;;;;;5045939;28;20025;-69
2022/12/25 08:12:33;;;;;;;10.75;7.13;;;8.40;99.90;;;;;;5053243;28;20128;-70
2022/12/25 08:14:59;;;;;;;15.35;6.22;;;8.30;99.90;;;;;;5053554;28;20129;-69
2022/12/25 08:17:24;;;;;;;13.85;6.88;;;8.40;99.90;;;;;;5061910;28;20045;-71
2022/12/25 08:19:50;;;;;;;18.27;7.05;;;8.40;99.90;;;;;;5047565;28;20044;-71
2022/12/25 08:22:15;;;;;;;14.07;7.57;;;8.40;99.90;;;;;;5052822;28;20062;-71
2022/12/25 08:24:41;;;;;;;15.57;7.45;;;8.40;99.90;;;;;;5056753;28;20025;-70
2022/12/25 08:27:07;;;;;;;16.45;7.50;;;8.40;99.90;;;;;;5058603;28;20037;-71
2022/12/25 08:29:32;;;;;;;16.00;7.05;;;8.40;99.90;;;;;;5053582;28;20050;-71
2022/12/25 08:31:58;;;;;;;17.33;7.70;;;8.40;99.90;;;;;;5055543;28;20045;-71
2022/12/25 08:34:24;;;;;;;15.32;7.07;;;8.40;99.90;;;;;;5052140;28;20044;-71
2022/12/25 08:36:50;;;;;;;14.18;7.63;;;8.40;99.90;;;;;;5045182;28;20115;-71
2022/12/25 08:39:15;;;;;;;17.08;6.85;;;8.40;99.90;;;;;;5048019;28;20048;-71
2022/12/25 08:41:41;;;;;;;14.82;7.65;;;8.40;99.90;;;;;;5054875;28;20037;-71
2022/12/25 08:44:06;;;;;;;17.48;7.38;;;8.40;99.90;;;;;;5055916;28;20060;-71
2022/12/25 08:46:32;;;;;;;14.60;7.03;;;8.40;99.90;;;;;;5057002;28;20497;-71
2022/12/25 08:48:58;;;;;;;17.77;6.78;;;8.40;99.90;;;;;;5056043;28;20538;-71
2022/12/25 08:51:24;;;;;;;16.38;7.03;;;8.40;99.90;;;;;;5062059;28;20225;-71
2022/12/25 08:53:52;;;;;;;12.43;6.82;;;8.40;99.90;;;;;;5050119;28;20039;-70
2022/12/25 08:56:18;;;;;;;16.08;6.78;;;8.50;99.90;;;;;;5052556;28;20587;-70
2022/12/25 08:58:44;;;;;;;14.02;6.82;;;8.50;99.90;;;;;;5052737;28;20040;-70
2022/12/25 09:01:11;;;;;;;17.95;6.78;;;8.50;99.90;;;;;;5039323;28;20037;-70
2022/12/25 09:03:36;;;;;;;15.52;6.28;;;8.50;99.90;;;;;;5049421;28;20171;-70
2022/12/25 09:06:11;;;;;;;15.48;6.38;;;8.60;99.90;;;;;;5058236;28;20123;-70
2022/12/25 09:08:37;;;;;;;13.60;6.65;;;8.50;99.90;;;;;;5052740;28;20041;-70
2022/12/25 09:11:07;;;;;;;15.32;7.47;;;8.60;99.90;;;;;;5050127;28;20040;-70
2022/12/25 09:13:32;;;;;;;18.35;6.88;;;8.60;99.90;;;;;;5053110;28;20060;-70
2022/12/25 09:15:58;;;;;;;16.08;8.07;;;8.70;99.90;;;;;;5062140;28;20044;-70
2022/12/25 09:18:24;;;;;;;23.38;8.27;;;8.70;99.90;;;;;;5061600;28;20052;-70
2022/12/25 09:21:01;;;;;;;12.35;6.35;;;8.70;99.90;;;;;;5060483;28;20045;-70
2022/12/25 09:23:27;;;;;;;20.13;8.32;;;8.70;99.90;;;;;;5061739;28;20086;-70
2022/12/25 09:25:53;;;;;;;15.52;7.32;;;8.70;99.90;;;;;;5058887;28;20035;-70
2022/12/25 09:28:18;;;;;;;12.32;7.15;;;8.80;99.90;;;;;;5059068;28;20399;-70
2022/12/25 09:30:44;;;;;;;17.52;7.13;;;8.80;99.90;;;;;;5059643;28;20067;-70
2022/12/25 09:33:10;;;;;;;12.02;6.70;;;8.80;99.90;;;;;;5052017;28;20466;-70
2022/12/25 09:35:35;;;;;;;13.23;7.10;;;8.80;99.90;;;;;;5049688;28;20029;-70
2022/12/25 09:38:01;;;;;;;13.93;7.72;;;8.80;99.90;;;;;;5050394;28;20052;-70
2022/12/25 09:40:29;;;;;;;17.88;8.20;;;8.80;99.90;;;;;;5047786;28;20074;-70
2022/12/25 09:42:55;;;;;;;16.83;7.30;;;8.80;99.90;;;;;;5049413;28;20041;-71
2022/12/25 09:45:32;;;;;;;10.90;6.55;;;8.90;99.90;;;;;;5027992;28;20072;-70
2022/12/25 09:47:58;;;;;;;12.45;6.63;;;8.90;99.90;;;;;;5042436;28;20052;-70
2022/12/25 09:50:42;;;;;;;11.35;6.45;;;8.90;99.90;;;;;;5041486;28;20034;-70
2022/12/25 09:53:27;;;;;;;10.10;5.97;;;8.90;99.90;;;;;;5043272;28;20076;-73
2022/12/25 09:56:03;;;;;;;11.77;6.47;;;9.00;99.90;;;;;;5048789;28;20400;-70
2022/12/25 09:58:30;;;;;;;15.35;7.93;;;9.00;99.90;;;;;;5048422;28;20049;-70
2022/12/25 10:01:11;;;;;;;13.25;7.85;;;9.00;99.90;;;;;;5050889;28;20044;-68
2022/12/25 10:03:39;;;;;;;19.05;8.13;;;9.40;99.90;;;;;;5053983;28;20048;-68
2022/12/25 10:06:08;;;;;;;12.20;6.93;;;9.20;99.90;;;;;;5050407;28;20060;-68
2022/12/25 10:08:39;;;;;;;14.48;7.00;;;9.20;99.90;;;;;;5058700;28;20524;-68
2022/12/25 10:11:36;;;;;;;19.13;7.38;;;9.20;99.90;;;;;;5052822;28;20232;-68
2022/12/25 10:14:22;;;;;;;17.15;7.50;;;9.20;99.90;;;;;;5049281;28;20044;-68
2022/12/25 10:17:03;;;;;;;13.77;6.50;;;9.20;99.90;;;;;;5050469;28;20041;-68
2022/12/25 10:19:46;;;;;;;14.60;6.85;;;9.10;99.90;;;;;;5050748;28;20049;-68
2022/12/25 10:22:34;;;;;;;16.23;6.47;;;9.20;99.90;;;;;;5054148;28;20052;-68
2022/12/25 10:25:02;;;;;;;13.15;6.63;;;9.10;99.90;;;;;;5050354;28;20048;-68
2022/12/25 10:27:40;;;;;;;13.30;7.47;;;9.10;99.90;;;;;;5052782;28;20045;-68
2022/12/25 10:30:14;;;;;;;17.20;7.55;;;9.10;99.90;;;;;;5053080;28;20198;-68
2022/12/25 10:32:40;;;;;;;17.25;7.82;;;9.10;99.90;;;;;;5054113;28;20072;-68
2022/12/25 10:35:11;;;;;;;12.40;5.90;;;9.10;99.90;;;;;;5053385;28;20056;-68
2022/12/25 10:37:37;;;;;;;10.20;6.32;;;9.10;99.90;;;;;;5036102;28;20064;-68
2022/12/25 10:40:16;;;;;;;16.92;5.95;;;9.20;99.90;;;;;;5053887;28;20049;-68
2022/12/25 10:42:44;;;;;;;10.18;5.90;;;9.10;99.90;;;;;;5053656;28;20040;-68
2022/12/25 10:45:09;;;;;;;15.50;6.65;;;9.20;99.90;;;;;;5052910;28;20049;-68
2022/12/25 10:47:39;;;;;;;11.23;6.13;;;9.20;99.90;;;;;;5052199;28;20067;-68
2022/12/25 10:50:11;;;;;;;12.40;6.28;;;9.20;99.90;;;;;;5053923;28;20064;-68
2022/12/25 10:52:58;;;;;;;16.73;6.10;;;9.20;99.90;;;;;;5053773;28;20040;-68
2022/12/25 10:55:23;;;;;;;14.60;5.30;;;9.20;99.90;;;;;;5052995;28;20378;-68
2022/12/25 10:57:49;;;;;;;12.77;5.88;;;9.20;99.90;;;;;;5053559;28;20056;-68
2022/12/25 11:00:20;;;;;;;15.77;6.25;;;9.20;99.90;;;;;;5053347;28;20040;-68
2022/12/25 11:02:45;;;;;;;12.75;5.35;;;9.20;99.90;;;;;;5052105;28;20055;-67
2022/12/25 11:05:23;;;;;;;10.52;5.75;;;9.30;99.90;;;;;;5051453;28;20041;-68
2022/12/25 11:07:54;;;;;;;12.63;6.60;;;9.30;99.90;;;;;;5052226;28;20237;-68
2022/12/25 11:10:41;;;;;;;12.73;6.22;;;9.30;99.90;;;;;;5051901;28;20079;-68
2022/12/25 11:13:17;;;;;;;12.68;6.00;;;9.30;99.90;;;;;;5052289;28;20033;-69
2022/12/25 11:15:46;;;;;;;14.57;5.35;;;9.30;99.90;;;;;;5052539;28;20406;-68
2022/12/25 11:18:21;;;;;;;11.23;5.88;;;9.30;99.90;;;;;;5051778;28;20056;-68
2022/12/25 11:20:52;;;;;;;15.25;6.32;;;9.30;99.90;;;;;;5052991;28;20489;-68
2022/12/25 11:23:20;;;;;;;14.98;6.65;;;9.30;99.90;;;;;;5051988;28;20044;-68
2022/12/25 11:25:55;;;;;;;10.48;5.70;;;9.30;99.90;;;;;;5051005;28;20124;-68
2022/12/25 11:28:20;;;;;;;11.05;6.07;;;9.20;99.90;;;;;;5034923;28;20083;-68
2022/12/25 11:30:52;;;;;;;14.27;5.75;;;9.30;99.90;;;;;;5051959;28;20474;-68
2022/12/25 11:33:19;;;;;;;16.88;7.15;;;9.30;99.90;;;;;;5051447;28;20124;-68
2022/12/25 11:35:49;;;;;;;14.13;7.13;;;9.30;99.90;;;;;;5050941;28;20409;-68
2022/12/25 11:38:15;;;;;;;13.48;6.38;;;9.30;99.90;;;;;;5052957;28;20033;-68
2022/12/25 11:40:47;;;;;;;13.00;5.60;;;9.30;99.90;;;;;;5052848;28;20387;-68
2022/12/25 11:43:20;;;;;;;14.60;6.80;;;9.30;99.90;;;;;;5052671;28;20048;-68
2022/12/25 11:45:53;;;;;;;14.43;6.72;;;9.30;99.90;;;;;;5051811;28;20119;-68
2022/12/25 11:48:29;;;;;;;14.05;6.43;;;9.20;99.90;;;;;;5051189;28;20159;-68
2022/12/25 11:50:58;;;;;;;10.38;5.80;;;9.30;99.90;;;;;;5052358;28;20520;-68
2022/12/25 11:53:48;;;;;;;10.75;6.40;;;9.30;99.90;;;;;;5052562;28;20040;-68
2022/12/25 11:56:22;;;;;;;15.20;8.20;;;9.30;99.90;;;;;;5052587;28;20091;-68
2022/12/25 11:58:53;;;;;;;13.40;6.47;;;9.30;99.90;;;;;;5052377;28;20048;-68
2022/12/25 12:01:37;;;;;;;8.30;5.43;;;9.30;99.90;;;;;;5050787;28;20047;-68
2022/12/25 12:04:14;;;;;;;14.25;6.38;;;9.30;99.90;;;;;;5051807;28;20041;-68
2022/12/25 12:06:58;;;;;;;12.35;6.10;;;9.30;99.90;;;;;;5052415;28;20090;-68
2022/12/25 12:09:46;;;;;;;12.82;6.03;;;9.30;99.90;;;;;;5052235;28;20057;-68
2022/12/25 12:12:33;;;;;;;9.40;6.10;;;9.30;99.90;;;;;;5052230;28;20075;-68
2022/12/25 12:15:20;;;;;;;10.52;6.00;;;9.30;99.90;;;;;;5051514;28;20068;-68
2022/12/25 12:17:46;;;;;;;10.35;6.22;;;9.40;99.90;;;;;;5052254;28;20044;-68
2022/12/25 12:20:26;;;;;;;13.75;6.13;;;9.30;99.90;;;;;;5050565;28;20048;-68
2022/12/25 12:22:52;;;;;;;9.25;5.43;;;9.30;99.90;;;;;;5050841;28;20397;-68
2022/12/25 12:25:18;;;;;;;12.30;6.32;;;9.30;99.90;;;;;;5049446;28;20036;-69
2022/12/25 12:27:44;;;;;;;12.27;5.88;;;9.30;99.90;;;;;;5051941;28;20140;-68
2022/12/25 12:30:33;;;;;;;17.52;6.72;;;9.30;99.90;;;;;;5051753;28;20120;-68
2022/12/25 12:33:01;;;;;;;13.48;5.65;;;9.30;99.90;;;;;;5051538;28;20124;-68
2022/12/25 12:35:30;;;;;;;16.60;6.43;;;9.30;99.90;;;;;;5049578;28;20052;-68
2022/12/25 12:38:15;;;;;;;11.43;5.88;;;9.30;99.90;;;;;;5051593;28;20041;-68
2022/12/25 12:40:53;;;;;;;13.40;6.63;;;9.40;99.90;;;;;;5051491;28;20057;-68
2022/12/25 12:43:28;;;;;;;12.35;6.93;;;9.30;99.90;;;;;;5051454;28;20115;-68
2022/12/25 12:46:02;;;;;;;14.50;7.15;;;9.40;99.90;;;;;;5049570;28;20045;-68
2022/12/25 12:48:36;;;;;;;12.35;6.35;;;9.40;99.90;;;;;;5050128;28;20041;-68
2022/12/25 12:51:04;;;;;;;12.27;6.18;;;9.30;99.90;;;;;;5051457;28;20037;-68
2022/12/25 12:53:31;;;;;;;16.58;8.13;;;9.30;99.90;;;;;;5051112;28;20045;-68
2022/12/25 12:56:12;;;;;;;17.17;6.95;;;9.30;99.90;;;;;;5050833;28;20401;-68
2022/12/25 12:58:44;;;;;;;12.27;6.35;;;9.30;99.90;;;;;;5051318;28;20045;-68
2022/12/25 13:01:38;;;;;;;12.68;6.82;;;9.30;99.90;;;;;;5051452;28;20049;-68
2022/12/25 13:04:16;;;;;;;11.43;6.45;;;9.30;99.90;;;;;;5050648;28;20087;-68
2022/12/25 13:06:50;;;;;;;13.07;8.23;;;9.30;99.90;;;;;;5049879;28;20508;-68
2022/12/25 13:09:42;;;;;;;21.33;8.63;;;9.30;99.90;;;;;;5051265;28;20115;-68
2022/12/25 13:12:11;;;;;;;12.20;6.85;;;9.20;99.90;;;;;;5049723;28;20120;-68
2022/12/25 13:14:37;;;;;;;15.52;7.55;;;9.30;99.90;;;;;;5048851;28;20073;-68
2022/12/25 13:17:07;;;;;;;15.50;6.97;;;9.20;99.90;;;;;;5050864;28;20134;-68
2022/12/25 13:19:35;;;;;;;18.88;7.88;;;9.30;99.90;;;;;;5051056;28;20041;-68
2022/12/25 13:22:04;;;;;;;14.45;7.40;;;9.20;99.90;;;;;;5050932;28;20037;-68
2022/12/25 13:24:33;;;;;;;12.10;7.35;;;9.20;99.90;;;;;;5048356;28;20037;-68
2022/12/25 13:26:59;;;;;;;14.15;7.82;;;9.20;99.90;;;;;;5050886;28;20037;-68
2022/12/25 13:29:35;;;;;;;16.42;8.43;;;9.20;99.90;;;;;;5049322;28;20525;-68
2022/12/25 13:32:03;;;;;;;18.38;7.28;;;9.10;99.90;;;;;;5049557;28;20037;-68
2022/12/25 13:34:32;;;;;;;14.15;7.35;;;9.10;99.90;;;;;;5050000;28;20043;-69
2022/12/25 13:37:04;;;;;;;16.13;7.50;;;9.10;99.90;;;;;;5050653;28;20041;-69
2022/12/25 13:39:32;;;;;;;11.13;7.27;;;9.10;99.90;;;;;;5050879;28;20044;-69
2022/12/25 13:42:04;;;;;;;19.00;7.95;;;9.10;99.90;;;;;;5050662;28;20049;-70
2022/12/25 13:45:01;;;;;;;13.25;6.45;;;9.10;99.90;;;;;;5048651;28;20040;-69
2022/12/25 13:47:42;;;;;;;10.93;6.95;;;9.00;99.90;;;;;;5049605;28;20099;-70
2022/12/25 13:50:28;;;;;;;16.83;6.65;;;9.10;99.90;;;;;;5049437;28;20040;-69
2022/12/25 13:52:55;;;;;;;11.07;6.95;;;9.00;99.90;;;;;;5050676;28;20409;-70
2022/12/25 13:55:26;;;;;;;14.23;7.55;;;9.00;99.90;;;;;;5053465;28;20422;-69
2022/12/25 13:58:04;;;;;;;12.32;7.13;;;9.00;99.90;;;;;;5036945;28;20053;-69
2022/12/25 14:00:51;;;;;;;15.30;7.15;;;9.00;99.90;;;;;;5036692;28;20045;-69
2022/12/25 14:03:40;;;;;;;12.48;7.35;;;9.00;99.90;;;;;;5053209;28;20083;-69
2022/12/25 14:06:16;;;;;;;13.48;7.43;;;9.00;99.90;;;;;;5054218;28;20041;-69
2022/12/25 14:08:43;;;;;;;11.43;7.13;;;9.00;99.90;;;;;;5036335;28;20494;-69
2022/12/25 14:11:09;;;;;;;15.90;7.70;;;9.00;99.90;;;;;;5053010;28;20123;-69
2022/12/25 14:13:39;;;;;;;14.07;7.70;;;8.90;99.90;;;;;;5054450;28;20094;-69
2022/12/25 14:16:06;;;;;;;12.48;7.28;;;8.90;99.90;;;;;;5052431;28;20072;-69
2022/12/25 14:18:32;;;;;;;20.00;7.65;;;8.90;99.90;;;;;;5053086;28;20405;-69
2022/12/25 14:21:03;;;;;;;14.00;7.38;;;8.90;99.90;;;;;;5053006;28;20080;-69
2022/12/25 14:23:42;;;;;;;18.15;8.25;;;8.90;99.90;;;;;;5053995;28;20564;-69
2022/12/25 14:26:17;;;;;;;12.77;7.93;;;8.90;99.90;;;;;;5050810;28;20037;-69
2022/12/25 14:28:51;;;;;;;21.55;9.40;;;8.90;99.90;;;;;;5054202;28;20182;-70
2022/12/25 14:31:17;;;;;;;14.50;8.95;;;8.90;99.90;;;;;;5036346;28;20098;-70
2022/12/25 14:33:44;;;;;;;13.85;9.18;;;8.90;99.90;;;;;;5052204;28;20048;-70
2022/12/25 14:36:12;;;;;;;14.73;8.65;;;8.90;99.90;;;;;;5054303;28;20064;-70
2022/12/25 14:38:40;;;;;;;15.07;8.55;;;8.80;99.90;;;;;;5053015;28;20436;-70
2022/12/25 14:41:20;;;;;;;15.52;8.50;;;8.90;99.90;;;;;;5053786;28;20120;-70
2022/12/25 14:43:54;;;;;;;15.25;9.68;;;8.80;99.90;;;;;;5051958;28;20045;-70